Time;durP1;ratioP1;P1;durP2;ratioP2;P2;SDS_P1;SDS_P2;PMS_P1;PMS_P2;Temp;Humidity;BMP_temperature;BMP_pressure;BME280_temperature;BME280_humidity;BME280_pressure;Samples;Min_cycle;Max_cycle;Signal;HPM_P1;HPM_P2
2023/05/09 00:01:18;;;;;;;2.90;2.70;;;;;;;12.36;71.04;101057.53;5013148;28;20211;-71
2023/05/09 00:03:44;;;;;;;2.50;2.30;;;;;;;12.46;70.49;101053.00;5013037;28;20202;-71
2023/05/09 00:06:12;;;;;;;2.57;2.47;;;;;;;12.46;70.16;101058.25;5013205;28;20262;-71
2023/05/09 00:08:40;;;;;;;2.67;2.47;;;;;;;12.38;70.63;101071.47;5013155;28;20234;-71
2023/05/09 00:11:07;;;;;;;2.70;2.50;;;;;;;12.38;70.40;101071.47;5012806;28;20264;-71
2023/05/09 00:13:34;;;;;;;3.60;2.67;;;;;;;12.34;70.06;101074.16;5012781;28;20264;-71
2023/05/09 00:16:01;;;;;;;3.23;2.83;;;;;;;12.18;70.92;101079.63;5013072;28;20206;-71
2023/05/09 00:18:29;;;;;;;3.23;2.93;;;;;;;12.08;71.27;101070.19;5012603;28;20229;-71
2023/05/09 00:20:56;;;;;;;3.10;2.90;;;;;;;12.03;71.05;101062.44;5012846;28;20203;-71
2023/05/09 00:23:22;;;;;;;3.60;3.30;;;;;;;12.01;71.38;101045.88;5012608;28;20207;-71
2023/05/09 00:25:49;;;;;;;3.23;2.93;;;;;;;11.92;71.50;101049.47;5013001;28;20198;-71
2023/05/09 00:28:17;;;;;;;3.47;3.23;;;;;;;11.90;71.56;101037.31;5012529;28;20226;-71
2023/05/09 00:30:43;;;;;;;3.40;3.07;;;;;;;11.80;71.89;101038.31;5012765;28;20203;-71
2023/05/09 00:33:10;;;;;;;3.00;2.80;;;;;;;11.71;72.20;101028.84;5027167;22;20278;-72
2023/05/09 00:35:36;;;;;;;3.47;3.17;;;;;;;11.66;72.38;101017.59;5012320;28;20230;-71
2023/05/09 00:38:02;;;;;;;3.37;3.17;;;;;;;11.70;72.52;101012.28;5012228;28;20269;-71
2023/05/09 00:40:29;;;;;;;2.93;2.73;;;;;;;11.62;72.45;101003.69;5012528;28;20218;-71
2023/05/09 00:42:57;;;;;;;3.03;2.83;;;;;;;11.52;73.17;100992.50;5012388;28;20288;-71
2023/05/09 00:45:25;;;;;;;3.17;2.80;;;;;;;11.48;73.35;100974.25;5012522;28;20203;-71
2023/05/09 00:47:52;;;;;;;3.20;2.93;;;;;;;11.52;73.53;100960.25;5012305;28;20231;-71
2023/05/09 00:50:18;;;;;;;3.60;3.30;;;;;;;11.52;73.39;100965.50;5012446;28;20261;-71
2023/05/09 00:52:45;;;;;;;4.77;2.80;;;;;;;11.48;73.51;100946.38;5012453;28;20210;-71
2023/05/09 00:55:11;;;;;;;3.57;3.27;;;;;;;11.52;73.55;100957.66;5012125;28;20227;-69
2023/05/09 00:57:37;;;;;;;3.10;2.90;;;;;;;11.55;73.69;100954.13;5011865;28;20289;-71
2023/05/09 01:00:05;;;;;;;3.83;3.40;;;;;;;11.54;73.29;100945.41;5011922;28;20242;-71
2023/05/09 01:02:33;;;;;;;3.10;2.90;;;;;;;11.40;73.69;100953.47;5012293;28;20214;-71
2023/05/09 01:05:01;;;;;;;3.27;2.97;;;;;;;11.38;73.70;100950.00;5011927;28;20210;-71
2023/05/09 01:07:34;;;;;;;3.67;3.37;;;;;;;11.41;73.84;100952.56;5012017;28;20234;-71
2023/05/09 01:10:06;;;;;;;3.53;3.23;;;;;;;11.32;73.97;100937.03;5012136;28;20206;-71
2023/05/09 01:12:40;;;;;;;3.40;2.97;;;;;;;11.23;74.23;100937.13;5012005;28;20206;-71
2023/05/09 01:15:15;;;;;;;3.20;3.00;;;;;;;11.19;74.51;100919.78;5012168;28;20284;-71
2023/05/09 01:17:49;;;;;;;3.30;3.00;;;;;;;11.21;74.63;100918.84;5012073;28;20223;-71
2023/05/09 01:20:22;;;;;;;4.30;3.90;;;;;;;11.26;74.50;100909.22;5012093;28;20289;-71
2023/05/09 01:22:55;;;;;;;7.17;2.87;;;;;;;11.28;75.13;100901.38;5011859;28;20757;-71
2023/05/09 01:25:44;;;;;;;3.77;3.37;;;;;;;11.21;74.66;100892.72;5012386;28;20196;-71
2023/05/09 01:28:16;;;;;;;3.57;3.27;;;;;;;11.15;74.96;100897.19;5011091;28;20238;-71
2023/05/09 01:30:46;;;;;;;3.03;2.83;;;;;;;11.13;74.22;100897.19;5011863;28;20230;-71
2023/05/09 01:33:17;;;;;;;4.13;3.40;;;;;;;11.01;75.01;100889.53;5011787;28;20199;-71
2023/05/09 01:35:47;;;;;;;3.03;2.83;;;;;;;11.01;74.64;100892.16;5012019;28;20377;-71
2023/05/09 01:38:20;;;;;;;3.67;3.37;;;;;;;10.93;75.03;100879.19;5011788;28;20226;-71
2023/05/09 01:40:49;;;;;;;3.67;3.37;;;;;;;10.91;75.11;100884.44;5011607;28;20211;-71
2023/05/09 01:43:19;;;;;;;3.47;3.17;;;;;;;10.89;75.39;100880.97;5011663;28;20215;-71
2023/05/09 01:45:48;;;;;;;3.27;3.00;;;;;;;10.95;75.91;100871.34;5011918;28;20203;-71
2023/05/09 01:48:15;;;;;;;3.20;3.00;;;;;;;10.98;76.00;100846.06;5011790;28;20234;-71
2023/05/09 01:50:43;;;;;;;3.03;2.83;;;;;;;10.97;75.42;100852.13;5011891;28;20207;-71
2023/05/09 01:53:11;;;;;;;3.87;3.57;;;;;;;11.00;75.89;100851.22;5011764;28;20206;-71
2023/05/09 01:55:40;;;;;;;4.53;3.47;;;;;;;10.96;76.04;100855.66;5011936;28;20277;-71
2023/05/09 01:58:08;;;;;;;3.43;3.23;;;;;;;10.98;76.15;100847.78;5011528;28;20644;-71
2023/05/09 02:00:35;;;;;;;3.20;2.90;;;;;;;10.93;75.83;100848.69;5011488;28;20265;-71
2023/05/09 02:03:04;;;;;;;3.53;3.27;;;;;;;10.90;75.95;100855.72;5011376;28;20203;-69
2023/05/09 02:05:32;;;;;;;3.30;3.10;;;;;;;10.82;76.04;100850.63;5011402;28;20207;-69
2023/05/09 02:07:59;;;;;;;3.57;3.27;;;;;;;10.77;76.35;100841.97;5011354;28;20457;-69
2023/05/09 02:10:27;;;;;;;3.60;3.30;;;;;;;10.88;76.34;100832.25;5011651;28;20253;-69
2023/05/09 02:12:54;;;;;;;3.80;3.50;;;;;;;10.86;76.52;100834.03;5011653;28;20277;-69
2023/05/09 02:15:21;;;;;;;3.23;3.00;;;;;;;10.83;76.42;100836.66;5011553;28;20276;-71
2023/05/09 02:17:47;;;;;;;3.70;3.40;;;;;;;10.83;76.28;100836.66;5013884;28;20790;-71
2023/05/09 02:20:15;;;;;;;5.33;3.57;;;;;;;10.87;76.31;100840.09;5015029;28;20210;-71
2023/05/09 02:22:43;;;;;;;3.60;3.40;;;;;;;10.84;76.02;100845.34;5014917;28;20257;-71
2023/05/09 02:25:13;;;;;;;4.40;4.03;;;;;;;10.78;75.46;100848.91;5015288;28;20210;-71
2023/05/09 02:27:42;;;;;;;4.10;3.80;;;;;;;10.76;75.33;100855.03;5014895;28;20281;-71
2023/05/09 02:30:13;;;;;;;4.27;3.97;;;;;;;10.62;75.99;100866.50;5014543;28;20262;-71
2023/05/09 02:32:43;;;;;;;4.00;3.63;;;;;;;10.64;76.34;100848.22;5014532;28;20203;-71
2023/05/09 02:35:12;;;;;;;4.13;3.73;;;;;;;10.68;76.50;100848.19;5014489;28;20222;-71
2023/05/09 02:37:40;;;;;;;4.30;3.47;;;;;;;10.65;75.97;100852.56;5014456;28;20226;-71
2023/05/09 02:40:09;;;;;;;4.20;3.90;;;;;;;10.61;76.13;100849.13;5014673;28;20203;-71
2023/05/09 02:42:35;;;;;;;4.07;3.77;;;;;;;10.58;75.69;100854.38;5014583;28;20220;-71
2023/05/09 02:45:02;;;;;;;3.70;3.40;;;;;;;10.53;76.26;100853.59;5014186;28;20249;-71
2023/05/09 02:47:28;;;;;;;6.43;3.83;;;;;;;10.49;77.53;100838.84;5014239;28;20237;-71
2023/05/09 02:49:55;;;;;;;3.67;3.47;;;;;;;10.45;77.88;100817.13;5014428;28;20211;-71
2023/05/09 02:52:21;;;;;;;4.30;3.77;;;;;;;10.52;77.56;100810.09;5014354;28;20293;-71
2023/05/09 02:54:49;;;;;;;4.20;3.90;;;;;;;10.56;77.44;100814.38;5014315;28;20230;-71
2023/05/09 02:57:15;;;;;;;3.57;3.27;;;;;;;10.60;76.92;100810.84;5014556;28;20570;-71
2023/05/09 02:59:42;;;;;;;4.20;3.90;;;;;;;10.62;76.70;100819.53;5013933;28;20202;-71
2023/05/09 03:02:08;;;;;;;4.17;3.77;;;;;;;10.65;76.94;100818.63;5013981;28;20238;-71
2023/05/09 03:04:34;;;;;;;4.30;4.00;;;;;;;10.66;76.83;100820.34;5014169;28;20731;-71
2023/05/09 03:07:01;;;;;;;4.10;3.70;;;;;;;10.66;76.40;100836.00;5013847;28;20639;-71
2023/05/09 03:09:27;;;;;;;3.77;3.47;;;;;;;10.68;76.45;100831.63;5014132;28;20264;-71
2023/05/09 03:11:56;;;;;;;3.90;3.60;;;;;;;10.69;76.37;100834.22;5014214;28;20256;-71
2023/05/09 03:14:22;;;;;;;4.30;4.00;;;;;;;10.65;76.98;100829.09;5013693;28;20668;-71
2023/05/09 03:16:49;;;;;;;6.27;4.63;;;;;;;10.55;76.58;100825.72;5014074;28;20261;-71
2023/05/09 03:19:15;;;;;;;4.30;4.00;;;;;;;10.59;76.00;100840.47;5013938;28;20227;-71
2023/05/09 03:21:41;;;;;;;4.40;4.10;;;;;;;10.47;76.39;100844.09;5013800;28;20211;-71
2023/05/09 03:24:08;;;;;;;4.10;3.70;;;;;;;10.37;76.76;100831.19;5013853;28;20266;-71
2023/05/09 03:26:35;;;;;;;4.37;3.93;;;;;;;10.26;76.88;100828.63;5013631;28;20212;-71
2023/05/09 03:29:03;;;;;;;4.47;4.07;;;;;;;10.28;77.06;100819.06;5013339;28;20310;-71
2023/05/09 03:31:30;;;;;;;4.97;4.37;;;;;;;10.28;77.53;100819.91;5013402;28;20206;-71
2023/05/09 03:33:56;;;;;;;4.93;4.57;;;;;;;10.25;77.38;100809.53;5013398;28;20219;-71
2023/05/09 03:36:22;;;;;;;4.33;4.03;;;;;;;10.12;78.02;100800.09;5013535;28;20223;-71
2023/05/09 03:38:49;;;;;;;4.03;3.70;;;;;;;10.14;77.70;100790.50;5013473;28;20241;-71
2023/05/09 03:41:17;;;;;;;4.37;4.07;;;;;;;10.07;78.16;100789.72;5013444;28;20203;-71
2023/05/09 03:43:44;;;;;;;4.70;4.30;;;;;;;10.00;78.65;100776.78;5013169;28;20210;-71
2023/05/09 03:46:11;;;;;;;4.77;4.43;;;;;;;10.04;78.48;100766.28;5013772;28;20203;-71
2023/05/09 03:48:38;;;;;;;4.80;4.40;;;;;;;10.04;78.52;100765.41;5013352;28;20280;-71
2023/05/09 03:51:04;;;;;;;4.20;3.90;;;;;;;9.95;78.88;100763.78;5013295;28;20207;-71
2023/05/09 03:53:31;;;;;;;4.60;4.20;;;;;;;9.87;79.65;100744.72;5013210;28;20215;-71
2023/05/09 03:55:57;;;;;;;4.10;3.80;;;;;;;9.79;80.63;100724.00;5013075;28;20225;-71
2023/05/09 03:58:24;;;;;;;3.87;3.63;;;;;;;9.81;80.41;100713.53;5012861;28;20226;-71
2023/05/09 04:00:50;;;;;;;4.30;4.00;;;;;;;9.84;80.46;100703.06;5013238;28;20207;-71
2023/05/09 04:03:18;;;;;;;4.77;4.37;;;;;;;9.85;80.26;100697.84;5012946;28;20257;-71
2023/05/09 04:05:44;;;;;;;4.40;4.07;;;;;;;9.90;79.91;100703.00;5013139;28;20209;-71
2023/05/09 04:08:11;;;;;;;4.20;3.90;;;;;;;9.79;80.63;100703.13;5012940;28;20235;-71
2023/05/09 04:10:37;;;;;;;4.33;4.00;;;;;;;9.76;80.71;100695.34;5013324;28;20226;-71
2023/05/09 04:13:03;;;;;;;4.30;3.90;;;;;;;9.72;81.44;100680.63;5012998;28;20215;-71
2023/05/09 04:15:30;;;;;;;4.40;4.03;;;;;;;9.73;81.11;100664.06;5012978;28;20281;-71
2023/05/09 04:17:56;;;;;;;3.77;3.57;;;;;;;9.83;80.74;100657.00;5012855;28;20370;-71
2023/05/09 04:20:24;;;;;;;6.33;5.73;;;;;;;9.89;80.13;100670.84;5012846;28;20594;-71
2023/05/09 04:22:50;;;;;;;4.97;4.67;;;;;;;9.95;79.57;100680.34;5012706;28;20207;-71
2023/05/09 04:25:18;;;;;;;5.07;4.67;;;;;;;10.04;79.05;100689.78;5012522;28;20754;-71
2023/05/09 04:27:45;;;;;;;5.63;4.60;;;;;;;10.07;78.51;100708.88;5012611;28;20316;-71
2023/05/09 04:30:12;;;;;;;4.90;4.60;;;;;;;10.14;78.99;100722.69;5012350;28;20211;-72
2023/05/09 04:32:38;;;;;;;5.23;4.87;;;;;;;10.17;78.22;100735.72;5012638;28;20264;-71
2023/05/09 04:35:07;;;;;;;6.60;6.00;;;;;;;10.13;78.38;100747.06;5012403;28;20214;-71
2023/05/09 04:37:34;;;;;;;5.53;5.13;;;;;;;10.07;79.22;100749.75;5012745;28;20238;-71
2023/05/09 04:40:01;;;;;;;5.10;4.70;;;;;;;10.08;79.92;100738.41;5011829;28;20211;-71
2023/05/09 04:42:27;;;;;;;5.00;4.50;;;;;;;10.14;80.24;100720.94;5012448;28;20297;-71
2023/05/09 04:44:53;;;;;;;4.63;4.30;;;;;;;10.25;80.34;100714.75;5012733;28;20202;-71
2023/05/09 04:47:20;;;;;;;4.67;4.27;;;;;;;10.34;79.51;100712.88;5012295;28;20230;-71
2023/05/09 04:49:46;;;;;;;4.10;3.80;;;;;;;10.39;79.07;100712.84;5012479;28;20272;-71
2023/05/09 04:52:13;;;;;;;4.33;3.93;;;;;;;10.42;78.71;100738.88;5012220;28;20207;-71
2023/05/09 04:54:40;;;;;;;8.13;4.87;;;;;;;10.40;79.52;100729.34;5012152;28;20264;-71
2023/05/09 04:57:07;;;;;;;5.00;4.63;;;;;;;10.41;79.68;100736.31;5012202;28;20234;-71
2023/05/09 04:59:34;;;;;;;4.87;4.50;;;;;;;10.41;80.15;100711.06;5012047;28;20205;-71
2023/05/09 05:02:00;;;;;;;5.57;4.70;;;;;;;10.43;80.95;100698.84;5011984;28;20264;-71
2023/05/09 05:04:27;;;;;;;5.43;5.03;;;;;;;10.49;80.72;100685.72;5012153;28;20214;-71
2023/05/09 05:06:54;;;;;;;4.83;4.43;;;;;;;10.49;81.65;100670.06;5011986;28;20213;-71
2023/05/09 05:09:21;;;;;;;6.50;5.40;;;;;;;10.56;81.35;100668.22;5012216;28;20333;-71
2023/05/09 05:11:48;;;;;;;6.53;5.90;;;;;;;10.64;79.97;100681.16;5011831;28;20305;-71
2023/05/09 05:14:15;;;;;;;6.70;6.10;;;;;;;10.73;78.91;100713.19;5012178;28;20742;-71
2023/05/09 05:16:41;;;;;;;6.67;6.17;;;;;;;10.81;78.31;100727.91;5011883;28;20231;-71
2023/05/09 05:19:08;;;;;;;6.37;5.83;;;;;;;10.79;78.77;100734.91;5011885;28;20711;-71
2023/05/09 05:21:34;;;;;;;6.73;6.00;;;;;;;10.87;78.26;100738.25;5011771;28;20206;-71
2023/05/09 05:24:00;;;;;;;7.33;6.30;;;;;;;10.91;78.30;100738.16;5012246;28;20213;-71
2023/05/09 05:26:27;;;;;;;6.23;5.73;;;;;;;10.99;78.43;100747.66;5012010;28;20234;-71
2023/05/09 05:28:56;;;;;;;6.93;6.23;;;;;;;11.04;79.07;100746.69;5011988;28;20523;-71
2023/05/09 05:31:22;;;;;;;15.73;6.30;;;;;;;11.09;79.45;100734.41;5011639;28;20203;-71
2023/05/09 05:33:49;;;;;;;6.50;5.87;;;;;;;11.18;78.90;100732.50;5011791;28;20676;-71
2023/05/09 05:36:15;;;;;;;6.80;6.30;;;;;;;11.22;79.21;100726.34;5011453;28;20231;-71
2023/05/09 05:38:41;;;;;;;6.37;5.87;;;;;;;11.31;79.52;100723.59;5011665;28;20226;-71
2023/05/09 05:41:10;;;;;;;6.73;6.20;;;;;;;11.40;79.02;100727.81;5010066;28;20738;-71
2023/05/09 05:43:36;;;;;;;6.50;6.10;;;;;;;11.48;78.03;100734.63;5011833;28;20207;-71
2023/05/09 05:46:04;;;;;;;7.40;6.80;;;;;;;11.54;78.70;100744.09;5012153;28;20257;-71
2023/05/09 05:48:31;;;;;;;7.07;6.57;;;;;;;11.58;79.28;100734.47;5011450;28;20317;-71
2023/05/09 05:50:57;;;;;;;6.97;6.47;;;;;;;11.64;79.98;100718.66;5011910;28;20207;-71
2023/05/09 05:53:23;;;;;;;6.70;6.30;;;;;;;11.70;80.41;100698.47;5015568;28;20296;-71
2023/05/09 05:55:50;;;;;;;6.80;6.27;;;;;;;11.77;81.42;100683.50;5015542;28;20223;-71
2023/05/09 05:58:16;;;;;;;7.07;6.47;;;;;;;11.86;81.18;100662.41;5015219;28;20614;-71
2023/05/09 06:00:43;;;;;;;7.17;6.67;;;;;;;11.96;80.47;100662.25;5015029;28;20687;-71
2023/05/09 06:03:13;;;;;;;6.87;6.37;;;;;;;12.08;78.28;100681.16;5015036;28;20266;-71
2023/05/09 06:05:41;;;;;;;7.03;6.47;;;;;;;12.18;78.35;100701.91;5015459;28;20202;-70
2023/05/09 06:08:08;;;;;;;7.00;6.40;;;;;;;12.25;78.04;100725.31;5015054;28;20716;-70
2023/05/09 06:10:34;;;;;;;7.57;6.90;;;;;;;12.29;77.88;100740.03;5015205;28;20280;-71
2023/05/09 06:13:01;;;;;;;7.73;7.07;;;;;;;12.34;77.24;100746.94;5015034;28;20295;-71
2023/05/09 06:15:27;;;;;;;7.73;7.13;;;;;;;12.43;76.70;100762.47;5014891;28;20269;-70
2023/05/09 06:17:54;;;;;;;8.07;7.47;;;;;;;12.50;76.59;100777.13;5014720;28;20642;-70
2023/05/09 06:20:21;;;;;;;7.47;6.77;;;;;;;12.59;76.77;100781.31;5015141;28;20274;-70
2023/05/09 06:22:48;;;;;;;7.93;7.33;;;;;;;12.63;77.75;100767.25;5014988;28;20272;-70
2023/05/09 06:25:14;;;;;;;7.80;7.20;;;;;;;12.69;76.95;100769.75;5014843;28;20615;-70
2023/05/09 06:27:41;;;;;;;7.40;6.80;;;;;;;12.78;76.85;100773.91;5014561;28;20224;-70
2023/05/09 06:30:09;;;;;;;7.40;6.90;;;;;;;12.84;76.82;100773.75;5014480;28;20274;-70
2023/05/09 06:32:35;;;;;;;7.60;7.00;;;;;;;12.89;77.07;100770.13;5015049;28;20208;-70
2023/05/09 06:35:01;;;;;;;6.70;6.20;;;;;;;12.98;77.36;100753.31;5040169;23;20259;-70
2023/05/09 06:37:32;;;;;;;7.20;6.60;;;;;;;13.06;78.81;100726.94;5033863;28;20281;-70
2023/05/09 06:39:59;;;;;;;5.63;5.10;;;;;;;13.20;76.37;100745.84;5034141;28;20211;-70
2023/05/09 06:42:25;;;;;;;5.40;5.03;;;;;;;13.32;74.84;100789.25;5034375;28;20213;-70
2023/05/09 06:44:52;;;;;;;6.73;5.43;;;;;;;13.39;76.50;100785.56;5034361;28;20206;-70
2023/05/09 06:47:18;;;;;;;5.73;5.20;;;;;;;13.42;74.52;100792.50;5034383;28;20273;-71
2023/05/09 06:49:45;;;;;;;5.70;5.30;;;;;;;13.51;74.38;100808.84;5034418;28;20212;-71
2023/05/09 06:52:11;;;;;;;5.37;5.07;;;;;;;13.62;72.32;100853.19;5034235;28;20211;-71
2023/05/09 06:54:39;;;;;;;4.37;4.00;;;;;;;13.78;70.54;100894.81;5034655;28;20214;-70
2023/05/09 06:57:06;;;;;;;4.30;4.00;;;;;;;13.90;71.78;100910.22;5034139;28;20233;-71
2023/05/09 06:59:32;;;;;;;5.13;4.47;;;;;;;14.02;71.54;100914.31;5034195;28;20262;-71
2023/05/09 07:01:59;;;;;;;4.23;3.93;;;;;;;14.17;72.63;100902.53;5033462;28;20276;-70
2023/05/09 07:04:25;;;;;;;4.43;4.00;;;;;;;14.30;69.89;100914.44;5034047;28;20221;-70
2023/05/09 07:06:51;;;;;;;4.33;3.97;;;;;;;14.40;68.20;100965.81;5034019;28;20204;-71
2023/05/09 07:09:19;;;;;;;4.03;3.73;;;;;;;14.47;66.74;100998.06;5034029;28;20644;-71
2023/05/09 07:11:47;;;;;;;3.87;3.57;;;;;;;14.54;67.19;101023.25;5033798;28;20252;-71
2023/05/09 07:14:13;;;;;;;6.40;3.77;;;;;;;14.62;65.33;101068.59;5033854;28;20257;-71
2023/05/09 07:16:39;;;;;;;3.77;3.47;;;;;;;14.65;63.64;101118.47;5033851;28;20232;-71
2023/05/09 07:19:06;;;;;;;3.73;3.30;;;;;;;14.69;64.16;101145.53;5033675;28;20714;-71
2023/05/09 07:21:33;;;;;;;3.93;3.63;;;;;;;14.66;64.78;101140.34;5033380;28;20213;-71
2023/05/09 07:23:59;;;;;;;6.57;3.90;;;;;;;14.69;65.15;101143.75;5033853;28;20215;-71
2023/05/09 07:26:26;;;;;;;4.20;3.90;;;;;;;14.73;63.71;101115.66;5033678;28;20262;-71
2023/05/09 07:28:53;;;;;;;4.63;3.50;;;;;;;14.76;65.78;101098.94;5033300;28;20614;-71
2023/05/09 07:31:20;;;;;;;3.60;3.30;;;;;;;14.86;65.86;101080.25;5033147;28;20244;-71
2023/05/09 07:33:46;;;;;;;3.80;3.37;;;;;;;14.97;64.77;101114.16;5024822;28;21127;-71
2023/05/09 07:36:15;;;;;;;4.00;3.33;;;;;;;15.08;62.77;101148.03;5033230;28;20644;-71
2023/05/09 07:38:41;;;;;;;4.33;4.03;;;;;;;15.23;62.14;101168.69;5033364;28;20237;-71
2023/05/09 07:41:07;;;;;;;4.40;3.93;;;;;;;15.36;63.84;101145.56;5033193;28;20263;-71
2023/05/09 07:43:34;;;;;;;4.30;3.90;;;;;;;15.47;63.38;101135.56;5032699;28;20209;-71
2023/05/09 07:46:02;;;;;;;3.63;3.43;;;;;;;15.57;62.92;101143.22;5032791;28;20216;-72
2023/05/09 07:48:28;;;;;;;4.00;3.70;;;;;;;15.66;61.76;101159.59;5032657;28;20713;-71
2023/05/09 07:50:54;;;;;;;3.83;3.53;;;;;;;15.75;64.56;101147.97;5030765;28;20208;-71
2023/05/09 07:53:21;;;;;;;4.30;3.90;;;;;;;15.81;62.59;101139.03;5032628;28;20212;-71
2023/05/09 07:55:49;;;;;;;3.70;3.50;;;;;;;15.88;61.64;101156.41;5032761;28;20217;-71
2023/05/09 07:58:15;;;;;;;3.93;3.63;;;;;;;15.88;60.96;101169.56;5032109;28;20248;-71
2023/05/09 08:00:42;;;;;;;4.07;3.77;;;;;;;15.96;63.34;101133.31;5032615;28;20675;-71
2023/05/09 08:03:09;;;;;;;3.80;3.60;;;;;;;15.98;61.41;101128.03;5032722;28;20217;-71
2023/05/09 08:05:36;;;;;;;4.10;3.80;;;;;;;16.08;62.71;101125.03;5032631;28;20662;-71
2023/05/09 08:08:02;;;;;;;3.23;3.07;;;;;;;16.24;62.39;101141.22;5032787;28;20302;-71
2023/05/09 08:10:31;;;;;;;3.73;3.43;;;;;;;16.36;62.83;101142.63;5032605;28;20213;-71
2023/05/09 08:12:57;;;;;;;3.80;3.50;;;;;;;16.43;61.36;101119.56;5032481;28;20216;-71
2023/05/09 08:15:24;;;;;;;3.83;3.53;;;;;;;16.46;62.33;101133.50;5031945;28;20259;-71
2023/05/09 08:17:50;;;;;;;4.53;4.23;;;;;;;16.56;60.65;101133.22;5031986;28;20234;-71
2023/05/09 08:20:18;;;;;;;3.70;3.37;;;;;;;16.62;61.08;101147.03;5032324;28;20209;-71
2023/05/09 08:22:44;;;;;;;4.30;3.90;;;;;;;16.65;61.71;101152.22;5032514;28;20218;-72
2023/05/09 08:25:12;;;;;;;4.00;3.70;;;;;;;16.72;61.61;101126.50;5032529;28;20205;-72
2023/05/09 08:27:38;;;;;;;4.03;3.73;;;;;;;16.83;61.21;101108.59;5032250;28;20900;-71
2023/05/09 08:30:06;;;;;;;4.03;3.73;;;;;;;16.88;62.10;101114.56;5032214;28;20259;-71
2023/05/09 08:32:32;;;;;;;4.40;4.10;;;;;;;16.97;60.95;101112.53;5032064;28;20255;-71
2023/05/09 08:34:59;;;;;;;3.80;3.50;;;;;;;17.03;60.21;101138.72;5032290;28;20217;-71
2023/05/09 08:37:27;;;;;;;4.37;4.07;;;;;;;17.05;59.40;101139.50;5032061;28;20264;-71
2023/05/09 08:39:54;;;;;;;3.83;3.43;;;;;;;17.12;59.81;101146.28;5032149;28;20237;-71
2023/05/09 08:42:22;;;;;;;4.27;3.97;;;;;;;17.18;61.69;101137.28;5031779;28;20213;-70
2023/05/09 08:44:48;;;;;;;4.73;4.13;;;;;;;17.28;60.29;101104.38;5031842;28;20205;-72
2023/05/09 08:47:15;;;;;;;4.17;3.93;;;;;;;17.40;60.75;101090.75;5031641;28;20213;-72
2023/05/09 08:49:44;;;;;;;3.80;3.60;;;;;;;17.49;57.84;101117.72;5032272;28;20266;-72
2023/05/09 08:52:10;;;;;;;4.23;3.90;;;;;;;17.54;56.32;101156.25;5031967;28;20216;-71
2023/05/09 08:54:39;;;;;;;3.83;3.53;;;;;;;17.60;56.80;101200.00;5031870;28;20769;-71
2023/05/09 08:57:05;;;;;;;3.80;3.60;;;;;;;17.63;55.46;101227.19;5031473;28;20607;-71
2023/05/09 08:59:35;;;;;;;4.27;3.90;;;;;;;17.70;55.83;101253.34;5031749;28;20205;-71
2023/05/09 09:02:05;;;;;;;4.17;3.50;;;;;;;17.76;55.23;101256.66;5031643;28;20205;-71
2023/05/09 09:04:32;;;;;;;3.53;3.33;;;;;;;17.84;53.84;101282.84;5031955;28;20705;-71
2023/05/09 09:06:59;;;;;;;4.40;4.00;;;;;;;17.92;53.51;101311.59;5031917;28;20213;-71
2023/05/09 09:09:26;;;;;;;4.67;3.37;;;;;;;17.99;53.89;101308.69;5031789;28;20286;-71
2023/05/09 09:11:54;;;;;;;4.20;3.87;;;;;;;18.05;54.57;101302.31;5031538;28;20617;-70
2023/05/09 09:14:24;;;;;;;3.90;3.60;;;;;;;18.13;55.51;101279.09;5031548;28;20259;-71
2023/05/09 09:16:52;;;;;;;5.33;3.97;;;;;;;18.21;53.69;101290.25;5031571;28;20229;-71
2023/05/09 09:19:22;;;;;;;4.60;3.80;;;;;;;18.29;56.65;101283.84;5031036;28;20230;-71
2023/05/09 09:21:52;;;;;;;4.20;3.93;;;;;;;18.38;53.67;101236.75;5031418;28;20261;-71
2023/05/09 09:24:23;;;;;;;3.87;3.67;;;;;;;18.50;54.37;101271.59;5032476;28;20241;-70
2023/05/09 09:26:51;;;;;;;3.73;3.53;;;;;;;18.57;54.73;101289.81;5034749;28;20272;-71
2023/05/09 09:29:20;;;;;;;4.47;3.80;;;;;;;18.63;52.85;101286.91;5035628;28;20226;-70
2023/05/09 09:31:47;;;;;;;3.80;3.60;;;;;;;18.69;52.66;101319.31;5035686;28;20700;-71
2023/05/09 09:34:20;;;;;;;4.67;4.37;;;;;;;18.78;52.57;101338.34;5035678;28;20267;-71
2023/05/09 09:36:47;;;;;;;4.63;4.23;;;;;;;18.91;54.10;101343.19;5035662;28;20279;-71
2023/05/09 09:39:14;;;;;;;4.00;3.60;;;;;;;19.02;54.36;101283.63;5035952;28;20226;-71
2023/05/09 09:41:41;;;;;;;4.13;3.93;;;;;;;19.08;51.68;101297.53;5035480;28;20259;-71
2023/05/09 09:44:08;;;;;;;5.13;3.90;;;;;;;19.22;53.63;101314.56;5035637;28;20285;-71
2023/05/09 09:46:43;;;;;;;4.03;3.70;;;;;;;19.30;52.39;101303.66;5035512;28;20243;-71
2023/05/09 09:49:10;;;;;;;4.13;3.83;;;;;;;19.43;52.95;101304.03;5035392;28;20284;-72
2023/05/09 09:51:36;;;;;;;3.67;3.37;;;;;;;19.51;50.15;101309.00;5035110;28;20210;-73
2023/05/09 09:54:03;;;;;;;3.93;3.73;;;;;;;19.59;50.26;101336.03;5035279;28;20229;-72
2023/05/09 09:56:39;;;;;;;3.57;3.27;;;;;;;19.82;54.56;101275.00;5035236;28;20233;-72
2023/05/09 09:59:09;;;;;;;4.00;3.70;;;;;;;19.90;51.55;101292.31;5035136;28;20226;-71
2023/05/09 10:01:36;;;;;;;3.23;3.03;;;;;;;19.96;51.04;101278.78;5035022;28;20610;-71
2023/05/09 10:04:04;;;;;;;4.03;3.83;;;;;;;20.02;49.76;101310.34;5035655;28;20261;-71
2023/05/09 10:06:30;;;;;;;4.17;3.77;;;;;;;20.12;50.19;101331.97;5036807;28;20210;-71
2023/05/09 10:08:57;;;;;;;4.17;3.77;;;;;;;20.20;52.18;101327.22;5038794;28;20228;-71
2023/05/09 10:11:23;;;;;;;4.03;3.73;;;;;;;20.19;47.23;101338.75;5038751;28;20202;-71
2023/05/09 10:13:50;;;;;;;4.10;3.80;;;;;;;20.19;49.26;101412.97;5035841;28;20237;-71
2023/05/09 10:16:16;;;;;;;4.30;4.00;;;;;;;20.21;48.38;101411.97;5035995;28;20206;-71
2023/05/09 10:18:43;;;;;;;4.60;4.07;;;;;;;20.26;49.77;101406.50;5034873;28;20695;-71
2023/05/09 10:21:15;;;;;;;4.83;4.10;;;;;;;20.27;47.32;101331.31;5035452;28;20261;-71
2023/05/09 10:23:45;;;;;;;4.80;4.50;;;;;;;20.36;51.47;101383.94;5034921;28;20216;-71
2023/05/09 10:26:17;;;;;;;3.80;3.50;;;;;;;20.45;48.29;101337.56;5035000;28;20325;-71
2023/05/09 10:28:47;;;;;;;3.67;3.47;;;;;;;20.51;46.63;101373.56;5029060;28;20222;-71
2023/05/09 10:31:18;;;;;;;3.80;3.50;;;;;;;20.52;46.24;101397.38;5034423;28;20218;-71
2023/05/09 10:33:47;;;;;;;3.80;3.60;;;;;;;20.58;47.91;101389.13;5034413;28;20210;-71
2023/05/09 10:36:19;;;;;;;4.43;4.07;;;;;;;20.67;48.33;101369.28;5034737;28;20216;-71
2023/05/09 10:38:47;;;;;;;3.70;3.40;;;;;;;20.72;45.87;101392.97;5033803;28;20234;-71
2023/05/09 10:41:15;;;;;;;3.57;3.30;;;;;;;20.73;48.28;101424.75;5034467;28;20244;-71
2023/05/09 10:43:43;;;;;;;4.63;4.33;;;;;;;20.69;46.08;101424.94;5034213;28;20209;-71
2023/05/09 10:46:09;;;;;;;4.40;4.10;;;;;;;20.79;48.28;101435.09;5034993;28;20955;-71
2023/05/09 10:48:37;;;;;;;4.43;4.17;;;;;;;20.92;48.10;101381.44;5034418;28;20280;-71
2023/05/09 10:51:05;;;;;;;4.77;4.47;;;;;;;20.95;47.81;101337.03;5034496;28;20210;-70
2023/05/09 10:53:43;;;;;;;4.43;4.13;;;;;;;20.97;50.09;101368.78;5034295;28;20209;-71
2023/05/09 10:56:21;;;;;;;4.90;4.60;;;;;;;21.09;47.37;101316.88;5034211;28;20222;-71
2023/05/09 10:58:48;;;;;;;5.07;4.77;;;;;;;21.06;47.24;101357.72;5028734;28;21854;-71
2023/05/09 11:01:28;;;;;;;4.60;4.30;;;;;;;21.22;46.89;101336.59;5033201;28;20659;-71
2023/05/09 11:03:56;;;;;;;4.47;4.17;;;;;;;21.47;47.21;101319.50;5033513;28;20671;-71
2023/05/09 11:06:44;;;;;;;4.10;3.80;;;;;;;21.64;47.08;101290.25;5033775;28;20725;-71
2023/05/09 11:09:34;;;;;;;4.47;4.07;;;;;;;21.79;47.76;101313.38;5033307;28;20225;-71
2023/05/09 11:12:08;;;;;;;5.57;5.27;;;;;;;21.96;47.23;101296.56;5034026;28;20232;-71
2023/05/09 11:14:43;;;;;;;4.60;4.30;;;;;;;22.12;48.36;101295.72;5033122;28;20206;-71
2023/05/09 11:17:11;;;;;;;3.80;3.50;;;;;;;22.28;47.55;101285.13;5032846;28;20205;-71
2023/05/09 11:19:53;;;;;;;4.00;3.70;;;;;;;22.47;44.54;101274.34;5033497;28;20638;-71
2023/05/09 11:22:21;;;;;;;3.80;3.50;;;;;;;22.57;44.19;101329.63;5033381;28;20203;-71
2023/05/09 11:24:51;;;;;;;4.33;4.03;;;;;;;22.77;45.91;101373.81;5033616;28;20204;-71
2023/05/09 11:27:20;;;;;;;3.83;3.63;;;;;;;23.01;45.36;101360.03;5033521;28;20246;-71
2023/05/09 11:29:50;;;;;;;4.60;4.00;;;;;;;23.42;42.89;101403.97;4333352;28;10000805;-71